Desk Aeronautico è consultabile gratuitamente, la pubblicità è l'unico modo per mantenere il sito online. Cercheremo di renderla il meno invasiva possibile, disattiva AdBlock!

Ultimi METAR emessi

Il METAR (Aerodrome routine meteorological report) è un messaggio codificato che descrive le condizioni meteorologiche osservate da una stazione meteo. I METAR sono reperibili presso gli ARO competenti. Scopri come leggere i METAR dalla nostra guida.

La lista degli ultimi METAR emessi da stazioni meteorologiche italiane sono elencati a seguire a puro scopo informativo. L’elenco degli indicatori di località ICAO è disponibile qui.


METAR LIBA 200955Z 31016KT 9999 FEW025 SCT040 11/02 Q1022 RMK BKN VIS MIN 9999 WIND THR11 31014KT WIND THR29 /////KT BLU=
METAR LIBC 200950Z 01015KT CAVOK 15/02 Q1018=
METAR LIBD 200950Z 32006KT 270V350 9999 VCSH FEW020 SCT035 11/06 Q1021=
METAR LIBE 200955Z 32010KT 9999 BKN015 04/M01 Q1018 RMK BKN SCT080 MON LIB VAL NIL VIS MIN 9999=
METAR LIBF 200950Z 30017KT 9999 SCT020 FEW025TCU 11/06 Q1023=
METAR LIBG 200950Z 35025G36KT 9999 FEW015 SCT040 12/07 Q1017=
METAR LIBH 200955Z 33019G30KT CAVOK 14/06 Q1019 RMK FEW FEW070 QUK 3 QUL 1 NW VIS MAR 20 KM VIS MIN 9999=
METAR LIBN 200955Z 01017KT 9999 -RA FEW020CB FEW025TCU BKN040 11/06 Q1017 RMK BKN VIS MIN 9999 WIND THR14 36015KT WIND THR32 01015G25KT BLU=
METAR LIBP 200950Z 35010KT 310V030 CAVOK 13/04 Q1025=
METAR LIBQ 200855Z VRB03KT 9999 FEW004 01/M03 Q1015 RMK FEW MON LIB VAL NIL VIS MIN 9999=
METAR LIBR 200950Z 34016KT 9999 SCT045 14/06 Q1017=
METAR LIBS 200955Z 03020KT 9999 BKN018 03/02 Q1023 RMK BKN MON CIME INC ELEV RAPID VIS MIN 9999=
METAR LIBT 200955Z 35022KT 9999 FEW026 13/05 Q1022 RMK SCT QUK 3 QUL 2 NW VIS MAR 20 KM VIS MIN 9999=
METAR LIBU 200955Z 01010G25KT 9999 BKN033 06/M05 Q1019 RMK BKN MON LIB VAL NIL VIS MIN 9999=
METAR LIBV 200955Z 32018KT 9999 SCT023 10/05 Q1018 RMK BKN SCT090 VIS MIN 9999 WIND THR32 33019KT WIND THR14 33016KT BLU=
METAR LIBW 200955Z 31015KT CAVOK 09/M01 Q1018 RMK SKC QUK 3 QUL 2 W VIS MAR 20 KM MON LIB VAL NIL VIS MIN 9999=
METAR LIBY 200955Z 36018KT 9999 SCT020 11/05 Q1015 RMK SCT QUK 3 QUL 2 N VIS MAR 10 KM VIS MIN 9999=
METAR LICA 200950Z 27015KT 9999 FEW030 15/06 Q1020=
METAR LICB 200950Z 29009KT 260V320 CAVOK 15/06 Q1021=
METAR LICC 200950Z 06005KT 020V140 CAVOK 17/05 Q1020=
METAR LICD 200950Z 33015KT CAVOK 16/09 Q1024=
METAR LICE 200955Z 31004KT 9999 SCT007 09/03 Q1018 RMK SCT MON CLD CIME NC VAL NIL NC VIS MIN 9999=
METAR LICF 200955Z 35007G17KT 9999 SCT018 SCT025 14/08 Q1019 RMK BKN QUK 2 QUL 1 NW VIS MAR 18 KM MON E CLD SCT NC MON W GEN INC NC VIS MIN 9999=
METAR LICG 200950Z 29012KT 9999 FEW020 14/08 Q1025=
METAR LICJ 200950Z 35011KT 9999 SCT020 15/10 Q1023=
METAR LICL 200955Z 33008KT CAVOK 15/08 Q1021 RMK SCT SCT070 QUK 1 QUL 0 VIS MAR 16 KM VIS MIN 9999=
METAR LICO 200955Z 27007KT 9999 FEW023 16/07 Q1019 RMK FEW QUK 3 QUL 0 VIS MAR 25 KM VIS MIN 9999=
METAR LICR 200950Z 36016KT 9999 FEW030 15/06 Q1020 RMK VIS MIN 9999=
METAR LICT 200955Z 35013KT 9999 SCT025 16/11 Q1023 RMK SCT VIS MIN 9999 WIND THR13 33013KT BLU=
METAR LICU 200855Z VRB06KT 9999 SCT020 16/13 Q1023 RMK SCT QUK 4 QUL 3 NW VIS MAR 18 KM VIS MIN 9999=
METAR LICX 200955Z 35013KT 9999 SCT016 08/02 Q1021 RMK SCT MON LIB ELEV SLW VAL NIL NC VIS MIN 9999=
METAR LICZ 200955Z 32009KT 9999 FEW035 17/04 Q1020 RMK SCT VIS MIN 9999 WIND THR28 36005KT WIND THR10 33010KT A3014 BLU=
METAR LIEA 200950Z 29007KT 250V330 9999 SCT030 14/07 Q1024=
METAR LIEB 200955Z 14007KT CAVOK 18/05 Q1023 RMK SKC QUK 1 QUL 0 VIS MAR 30 KM MON LIB VIS MIN 9999=
METAR LIEC 200955Z 27023KT 9999 FEW020 14/12 Q1024 RMK FEW QUK 3 QUL 0 VIS MAR 25 KM VIS MIN 9999=
METAR LIED 200955Z 34010KT 9999 FEW020 SCT030 15/10 Q1024 RMK BKN VIS MIN 9999 WIND THR35 33009KT WIND THR17 /////KT BLU=
METAR LIEE 200950Z 33011KT 9999 FEW040 15/08 Q1025=
METAR LIEF 200955Z 31007KT 9999 SCT025 15/12 Q1025 RMK SCT QUK 3 QUL 9 VIS MAR 20 KM VIS MIN 9999=
METAR LIEH 200955Z 29011KT 9999 SCT018 13/09 Q1024 RMK SCT QUK 3 QUL 0 VIS MAR 20 KM VIS MIN 9999=
METAR LIEL 200955Z 00000KT 9999 FEW015 18/09 Q1024 RMK FEW VIS MAR 18 KM MON LIB VIS MIN 9999=
METAR LIEP 200955Z /////KT 9999 FEW015 11/04 Q1023 RMK FEW VIS MIN 9999=
METAR LIMC 200950Z VRB03KT CAVOK 12/M06 Q1025 NOSIG=
METAR LIME 200950Z VRB02KT 9999 FEW110 11/M06 Q1025 NOSIG=
METAR LIMF 200950Z 10003KT 030V180 CAVOK 10/M05 Q1025=
METAR LIMG 200950Z 00000KT CAVOK 14/01 Q1026=
METAR LIMH 200955Z 02027KT 9999 SCT020 M09/M10 Q1020 RMK BKN SCT100 MON CLD SCT VAL NIL VIS MIN 9999=
METAR LIMJ 200950Z 13003KT 090V160 CAVOK 14/M01 Q1025=
METAR LIMK 200955Z 00000KT CAVOK 05/M08 Q1023 RMK SCT SCT180 VAL NIL VIS MIN 9999=
METAR LIML 200950Z VRB03KT CAVOK 10/M03 Q1026 NOSIG=
METAR LIMN 200955Z 09005KT 050V130 CAVOK 11/M04 Q1025 RMK BKN FEW120 SCT200 VIS MIN 9999 BLU=
METAR LIMP 200950Z VRB02KT CAVOK 09/05 Q1026=
METAR LIMS 200955Z 03001KT CAVOK 10/01 Q1024 RMK FEW FEW200 VIS MIN 9999 WIND THR30 09002KT BLU=
METAR LIMU 200955Z 02010KT CAVOK 16/04 Q1025 RMK FEW FEW200 QUK 2 QUL 1 SE VIS MAR 40 KM VIS MIN 9999=
METAR LIMV 200955Z /////KT CAVOK 07/M04 Q1025 RMK FEW FEW200 MON LIB VAL NIL VIS MIN 9999=
METAR LIMY 200955Z /////KT CAVOK 07/M00 Q1024 RMK SCT SCT200 VAL NIL VIS MIN 9999=
METAR LIMZ 200950Z 04003KT 360V110 CAVOK 10/M03 Q1025=
METAR LIPA 200955Z 19009KT 9999 FEW080 10/03 Q1025 RMK FEW VIS MIN 9999 WIND THR05 /////KT WIND THR23 /////KT A3029 BLU=
METAR LIPB 200950Z VRB02KT CAVOK 06/M08 Q1026 RMK MON LIB=
METAR LIPC 200955Z 04004KT CAVOK 10/06 Q1026 RMK SKC VIS MIN 9999 WIND THR11 /////KT WIND THR29 04004KT BLU=
METAR LIPE 200950Z 04004KT 360V090 CAVOK 09/03 Q1026=
METAR LIPF 200955Z /////KT CAVOK 12/06 Q1026 RMK SKC VIS MIN 9999=
METAR LIPH 200950Z 04004KT 010V080 CAVOK 11/02 Q1026=
METAR LIPI 200955Z 20002KT CAVOK 11/M03 Q1026 RMK SCT SCT180 VIS MIN 9999 WIND THR06 VRB02KT WIND THR24 13002KT BLU=
METAR LIPK 200950Z 08005KT CAVOK 11/03 Q1026=
METAR LIPL 200955Z 09005KT CAVOK 11/M02 Q1024 RMK FEW FEW200 VIS MIN 9999 WIND THR31 08004KT WIND THR13 11005KT BLU=
METAR LIPO 200950Z 07006KT 030V090 CAVOK 12/M06 Q1026=
METAR LIPQ 200950Z 01005KT 330V040 CAVOK 10/M01 Q1026=
METAR LIPR 200950Z 03003KT 320V070 CAVOK 10/05 Q1026=
METAR LIPS 200955Z /////KT 9999 FEW020 11/02 Q1026 RMK FEW VIS MIN 9999 WIND THR26 06002KT WIND THR08 05003KT BLU=
METAR LIPU 200950Z VRB03KT CAVOK 12/01 Q1026=
METAR LIPX 200950Z 05003KT 020V120 CAVOK 12/M00 Q1025=
METAR LIPY 200950Z 31010KT CAVOK 12/06 Q1026=
METAR LIPZ 200950Z 08007KT 060V120 CAVOK 09/03 Q1026 NOSIG=
METAR LIQB 200955Z 09009KT CAVOK 11/M02 Q1024 RMK SKC VIS MIN 9999=
METAR LIQC 200955Z 03008KT CAVOK 12/03 Q1022 RMK SKC QUK 2 QUL 1 NE VIS MAR 20 KM VIS MIN 9999=
METAR LIQJ 200955Z 21007KT CAVOK 13/01 Q1024 RMK SKC QUK 2 QUL 0 VIS MAR 30 KM VIS MIN 9999=
METAR LIQK 200855Z 29010KT CAVOK 13/07 Q1020 RMK SKC QUK 2 QUL 1 W VIS MAR 20 KM VIS MIN 9999=
METAR LIQN 200950Z VRB03KT CAVOK 10/00 Q1023=
METAR LIQO 200955Z 08012KT CAVOK 08/M09 Q1022 RMK SKC VAL NIL NC VIS MIN 9999=
METAR LIQR 200755Z 27003KT CAVOK 05/M07 Q1024 RMK SKC MON LIB NC VAL NIL NC VIS MIN 0000=
METAR LIQW 200955Z 33002KT CAVOK 09/03 Q1024 RMK SKC VIS MIN 9999 WIND THR18 33002KT BLU=
METAR LIQZ 200955Z 35003KT CAVOK 13/09 Q1021 RMK SKC QUK 3 QUL 1 NW VIS MAR 10 KM VIS MIN 9999=
METAR LIRA 200950Z 05005KT CAVOK 10/05 Q1023=
METAR LIRB 200955Z 36010KT CAVOK 11/01 Q1023 RMK SKC VIS MIN 9999=
METAR LIRE 200955Z 01010KT CAVOK 10/05 Q1023 RMK SKC VIS MIN 9999 WIND THR13 02010KT WIND THR31 36009KT BLU=
METAR LIRF 200950Z 02012KT CAVOK 13/02 Q1023 NOSIG=
METAR LIRG 200955Z 19004KT 160V230 CAVOK 13/06 Q1022 RMK SKC MON NE LIB NC VIS MIN 9999 BLU=
METAR LIRH 200955Z 19003KT CAVOK 11/06 Q1021 RMK SKC MON LIB NC VIS MIN 9999 WIND THR16 /////KT BLU=
METAR LIRK 200955Z AUTO 09021KT //// M04/M12 Q1021=
METAR LIRL 200955Z 19004KT CAVOK 15/06 Q1022 RMK SKC MON LIB NC VIS MIN 9999 WIND THR12 21003KT WIND THR30 /////KT BLU=
METAR LIRM 200955Z 06007KT CAVOK 12/02 Q1022 RMK SKC VIS MIN 9999 WIND THR06 04006KT BLU=
METAR LIRN 200950Z 08011KT 050V120 CAVOK 13/02 Q1022 NOSIG=
METAR LIRP 200945Z 12008KT CAVOK 12/05 Q1024 NOSIG RMK SKC VIS MIN 9999 WIND THR04 12008KT WIND THR22 12006KT BLU=
METAR LIRQ 200950Z VRB02KT CAVOK 10/05 Q1025=
METAR LIRS 200955Z 20005KT CAVOK 12/05 Q1024 RMK SKC VIS MIN 9999 WIND THR03 23002KT WIND THR21 18002KT BLU=
METAR LIRT 200955Z 34012KT 9999 BKN003 02/M02 Q1021 RMK BKN MON CIME INC VAL NIL VIS MIN 9999=
METAR LIRU 200950Z 02009KT 350V060 CAVOK 12/01 Q1023=
METAR LIRV 200955Z 04015KT CAVOK 10/M00 Q1023 RMK SKC MON E SE LIB NC VIS MIN 9999 WIND THR04 /////KT BLU=
METAR LIRX 200955Z 00000KT CAVOK 10/02 Q1023 RMK SKC VIS MIN 9999 VIS MAR 30 KM=
METAR LIRZ 200950Z 02010KT CAVOK 11/M01 Q1025=
METAR LIVD 200955Z 00000KT CAVOK 01/M10 Q1023 RMK SCT SCT070 VIS MIN 9999=
METAR LIVE 200955Z 01005KT CAVOK M02/M06 Q1021 RMK BKN BKN060 VIS MIN 9999=
METAR LIVF 200955Z 07005KT 9999 SCT024 07/M00 Q1023 RMK SCT MON W CLD SCT VAL NIL VIS MIN 9999=
METAR LIVM 200955Z VRB02KT CAVOK 07/04 Q1026 RMK SKC QUK 2 QUL 1 E VIS MAR 10 KM VIS MIN 9999=
METAR LIVO 200955Z 00000KT CAVOK 01/M05 Q1022 RMK BKN BKN090 VIS MIN 9999=
METAR LIVP 200955Z 21004KT CAVOK M05/M16 Q1020 RMK FEW FEW080 MON LIB VAL NIL VIS MIN 9999=
METAR LIVR 200955Z 30004KT CAVOK M03/M15 Q1016 RMK SCT SCT200 MON LIB VIS MIN 9999=
METAR LIVT 200955Z /////KT CAVOK 11/M01 Q1025 RMK BKN SCT080 QUK 1 QUL 0 VIS MAR 20 KM VIS MIN 9999=

Informazioni elaborate dal Servizio Meteorologico dell’Aeronautica Militare e pubblicate sul sito www.meteoam.it